createdAt,value
2023-02-14T00:00:35.964Z,100051.34
2023-02-14T00:03:28.058Z,100051.05
2023-02-14T00:06:05.676Z,100054.55
2023-02-14T00:08:38.284Z,100058.88
2023-02-14T00:11:10.471Z,100062.77
2023-02-14T00:14:03.538Z,100061.85
2023-02-14T00:16:38.718Z,100058.66
2023-02-14T00:19:13.124Z,100057.97
2023-02-14T00:21:45.524Z,100055.75
2023-02-14T00:24:19.863Z,100057.77
2023-02-14T00:26:53.088Z,100062.40
2023-02-14T00:29:27.449Z,100063.13
2023-02-14T00:32:00.706Z,100065.27
2023-02-14T00:34:36.543Z,100066.73
2023-02-14T00:37:08.756Z,100066.28
2023-02-14T00:39:44.566Z,100069.48
2023-02-14T00:42:16.820Z,100068.27
2023-02-14T00:44:51.095Z,100071.23
2023-02-14T00:47:25.545Z,100071.55
2023-02-14T00:50:03.131Z,100067.55
2023-02-14T00:52:35.371Z,100068.02
2023-02-14T00:55:10.325Z,100064.89
2023-02-14T00:57:45.278Z,100066.86
2023-02-14T01:00:19.141Z,100063.23
2023-02-14T01:02:51.512Z,100059.27
2023-02-14T01:05:24.491Z,100054.93
2023-02-14T01:07:56.627Z,100054.43
2023-02-14T01:10:28.926Z,100052.69
2023-02-14T01:13:03.102Z,100053.74
2023-02-14T01:15:35.501Z,100050.21
2023-02-14T01:18:08.250Z,100047.09
2023-02-14T01:20:43.907Z,100049.02
2023-02-14T01:23:16.041Z,100045.19
2023-02-14T01:25:48.213Z,100039.62
2023-02-14T01:28:20.417Z,100041.73
2023-02-14T01:30:52.989Z,100044.04
2023-02-14T01:33:25.499Z,100043.88
2023-02-14T01:36:00.872Z,100041.77
2023-02-14T01:38:33.536Z,100040.21
2023-02-14T01:41:06.816Z,100041.11
2023-02-14T01:44:00.124Z,100036.89
2023-02-14T01:46:34.841Z,100030.90
2023-02-14T01:49:13.375Z,100031.04
2023-02-14T01:51:50.297Z,100034.92
2023-02-14T01:54:25.251Z,100039.64
2023-02-14T01:57:06.828Z,100035.47
2023-02-14T01:59:42.390Z,100035.45
2023-02-14T02:02:23.715Z,100035.08
2023-02-14T02:04:57.749Z,100035.46
2023-02-14T02:07:32.526Z,100035.89
2023-02-14T02:10:08.319Z,100035.71
2023-02-14T02:12:41.822Z,100034.20
2023-02-14T02:15:14.096Z,100029.65
2023-02-14T02:17:56.275Z,100028.09
2023-02-14T02:20:54.001Z,100028.27
2023-02-14T02:24:06.827Z,100027.34
2023-02-14T02:27:08.801Z,100022.13
2023-02-14T02:30:01.392Z,100026.15
2023-02-14T02:33:03.757Z,100023.73
2023-02-14T02:35:55.337Z,100026.30
2023-02-14T02:38:47.488Z,100020.77
2023-02-14T02:41:27.593Z,100018.67
2023-02-14T02:44:12.492Z,100020.09
2023-02-14T02:46:53.632Z,100020.65
2023-02-14T02:49:53.298Z,100022.26
2023-02-14T02:52:50.488Z,100021.92
2023-02-14T02:55:28.487Z,100019.48
2023-02-14T02:58:02.582Z,100020.36
2023-02-14T03:00:35.534Z,100021.39
2023-02-14T03:03:26.135Z,100024.37
2023-02-14T03:06:01.909Z,100023.34
2023-02-14T03:08:34.439Z,100023.34
2023-02-14T03:11:07.763Z,100021.23
2023-02-14T03:14:08.314Z,100020.70
2023-02-14T03:17:00.810Z,100012.19
2023-02-14T03:20:00.689Z,100010.62
2023-02-14T03:22:48.618Z,100009.05
2023-02-14T03:25:40.323Z,100010.33
2023-02-14T03:28:19.939Z,100011.75
2023-02-14T03:31:04.375Z,100013.00
2023-02-14T03:33:54.157Z,100016.61
2023-02-14T03:36:32.579Z,100013.95
2023-02-14T03:39:08.011Z,100013.38
2023-02-14T03:41:45.410Z,100009.86
2023-02-14T03:44:25.994Z,100013.28
2023-02-14T03:47:04.289Z,100014.88
2023-02-14T03:49:42.010Z,100013.34
2023-02-14T03:52:19.198Z,100012.35
2023-02-14T03:54:55.321Z,100014.12
2023-02-14T03:57:31.585Z,100020.42
2023-02-14T04:00:08.009Z,100025.34
2023-02-14T04:02:47.584Z,100030.08
2023-02-14T04:05:25.080Z,100028.33
2023-02-14T04:08:01.530Z,100028.84
2023-02-14T04:10:35.368Z,100031.14
2023-02-14T04:13:08.117Z,100032.33
2023-02-14T04:15:41.681Z,100032.27
2023-02-14T04:18:31.791Z,100028.83
2023-02-14T04:21:04.284Z,100024.90
2023-02-14T04:23:39.532Z,100024.39
2023-02-14T04:26:12.361Z,100026.64
2023-02-14T04:28:44.749Z,100024.95
2023-02-14T04:31:17.572Z,100026.89
2023-02-14T04:33:51.370Z,100033.73
2023-02-14T04:36:23.727Z,100033.95
2023-02-14T04:38:56.169Z,100036.52
2023-02-14T04:41:28.394Z,100037.59
2023-02-14T04:44:02.894Z,100039.87
2023-02-14T04:46:35.183Z,100039.53
2023-02-14T04:49:07.876Z,100042.84
2023-02-14T04:51:40.038Z,100041.63
2023-02-14T04:54:12.551Z,100042.09
2023-02-14T04:56:45.565Z,100038.77
2023-02-14T04:59:17.893Z,100040.04
2023-02-14T05:01:50.269Z,100040.44
2023-02-14T05:04:22.778Z,100042.41
2023-02-14T05:06:58.111Z,100045.04
2023-02-14T05:09:30.407Z,100046.80
2023-02-14T05:12:02.656Z,100045.40
2023-02-14T05:14:37.815Z,100048.70
2023-02-14T05:17:10.935Z,100047.00
2023-02-14T05:19:43.506Z,100050.09
2023-02-14T05:22:18.414Z,100052.38
2023-02-14T05:24:51.444Z,100056.52
2023-02-14T05:27:23.753Z,100059.44
2023-02-14T05:29:56.498Z,100056.52
2023-02-14T05:32:29.485Z,100061.98
2023-02-14T05:35:01.685Z,100063.56
2023-02-14T05:37:34.262Z,100061.11
2023-02-14T05:40:08.429Z,100061.66
2023-02-14T05:42:41.141Z,100067.42
2023-02-14T05:45:14.540Z,100068.29
2023-02-14T05:47:48.403Z,100070.04
2023-02-14T05:50:24.665Z,100073.52
2023-02-14T05:52:59.541Z,100076.61
2023-02-14T05:55:32.179Z,100080.77
2023-02-14T05:58:04.569Z,100081.23
2023-02-14T06:00:40.613Z,100078.55
2023-02-14T06:03:13.392Z,100078.34
2023-02-14T06:05:45.952Z,100079.77
2023-02-14T06:08:21.746Z,100080.20
2023-02-14T06:10:56.853Z,100080.52
2023-02-14T06:13:31.897Z,100082.81
2023-02-14T06:16:06.943Z,100088.58
2023-02-14T06:18:42.106Z,100084.54
2023-02-14T06:21:15.556Z,100084.15
2023-02-14T06:23:50.968Z,100091.16
2023-02-14T06:26:28.212Z,100095.02
2023-02-14T06:29:03.002Z,100093.31
2023-02-14T06:31:35.516Z,100090.17
2023-02-14T06:34:08.006Z,100099.34
2023-02-14T06:36:40.708Z,100104.23
2023-02-14T06:39:13.102Z,100100.63
2023-02-14T06:41:45.851Z,100105.67
2023-02-14T06:44:18.031Z,100102.48
2023-02-14T06:46:50.312Z,100104.71
2023-02-14T06:49:27.374Z,100104.70
2023-02-14T06:51:59.770Z,100107.36
2023-02-14T06:54:31.978Z,100110.98
2023-02-14T06:57:04.286Z,100106.89
2023-02-14T06:59:36.529Z,100104.55
2023-02-14T07:02:10.641Z,100108.91
2023-02-14T07:04:43.038Z,100112.58
2023-02-14T07:07:15.173Z,100112.94
2023-02-14T07:09:47.396Z,100105.80
2023-02-14T07:12:20.039Z,100111.16
2023-02-14T07:14:52.173Z,100110.80
2023-02-14T07:17:24.379Z,100110.96
2023-02-14T07:19:56.625Z,100113.64
2023-02-14T07:22:30.350Z,100112.13
2023-02-14T07:25:03.218Z,100114.61
2023-02-14T07:27:35.537Z,100118.23
2023-02-14T07:30:10.009Z,100112.84
2023-02-14T07:32:42.895Z,100111.10
2023-02-14T07:35:15.557Z,100109.45
2023-02-14T07:37:47.703Z,100112.30
2023-02-14T07:40:21.118Z,100115.83
2023-02-14T07:42:57.885Z,100116.09
2023-02-14T07:45:30.435Z,100120.55
2023-02-14T07:48:06.067Z,100121.02
2023-02-14T07:50:39.450Z,100123.61
2023-02-14T07:53:11.719Z,100127.64
2023-02-14T07:55:44.418Z,100124.43
2023-02-14T07:58:16.627Z,100122.12
2023-02-14T08:00:49.797Z,100123.84
2023-02-14T08:03:22.050Z,100126.23
2023-02-14T08:05:58.506Z,100125.13
2023-02-14T08:08:32.740Z,100117.13
2023-02-14T08:11:11.287Z,100116.23
2023-02-14T08:13:43.506Z,100122.58
2023-02-14T08:16:15.659Z,100123.21
2023-02-14T08:18:48.185Z,100119.59
2023-02-14T08:21:20.835Z,100116.92
2023-02-14T08:23:52.947Z,100121.92
2023-02-14T08:26:25.688Z,100122.20
2023-02-14T08:28:57.852Z,100120.71
2023-02-14T08:31:36.576Z,100127.70
2023-02-14T08:34:09.564Z,100130.81
2023-02-14T08:36:41.853Z,100132.65
2023-02-14T08:39:16.546Z,100137.56
2023-02-14T08:41:48.776Z,100136.50
2023-02-14T08:44:21.846Z,100143.79
2023-02-14T08:46:54.471Z,100149.80
2023-02-14T08:49:27.012Z,100147.68
2023-02-14T08:51:59.183Z,100151.02
2023-02-14T08:54:31.344Z,100152.98
2023-02-14T08:57:07.013Z,100152.09
2023-02-14T08:59:39.317Z,100153.94
2023-02-14T09:02:16.362Z,100151.83
2023-02-14T09:04:48.601Z,100153.40
2023-02-14T09:07:20.832Z,100156.32
2023-02-14T09:09:54.184Z,100163.38
2023-02-14T09:12:35.862Z,100169.11
2023-02-14T09:15:09.891Z,100166.06
2023-02-14T09:17:41.965Z,100160.05
2023-02-14T09:20:16.707Z,100162.08
2023-02-14T09:22:49.038Z,100163.77
2023-02-14T09:25:21.904Z,100159.19
2023-02-14T09:27:54.264Z,100157.42
2023-02-14T09:30:26.458Z,100160.70
2023-02-14T09:33:00.413Z,100158.07
2023-02-14T09:35:32.606Z,100159.23
2023-02-14T09:38:20.020Z,100160.64
2023-02-14T09:40:52.159Z,100165.29
2023-02-14T09:43:32.157Z,100159.85
2023-02-14T09:46:06.237Z,100162.22
2023-02-14T09:48:43.894Z,100163.79
2023-02-14T09:51:20.367Z,100168.33
2023-02-14T09:53:58.260Z,100170.55
2023-02-14T09:56:50.723Z,100168.98
2023-02-14T09:59:30.453Z,100172.66
2023-02-14T10:02:24.988Z,100173.45
2023-02-14T10:05:07.918Z,100172.80
2023-02-14T10:07:41.748Z,100166.85
2023-02-14T10:10:20.908Z,100162.11
2023-02-14T10:13:01.029Z,100163.05
2023-02-14T10:15:39.537Z,100158.16
2023-02-14T10:18:15.925Z,100164.23
2023-02-14T10:20:53.841Z,100160.21
2023-02-14T10:23:39.186Z,100157.06
2023-02-14T10:26:19.021Z,100158.30
2023-02-14T10:28:52.057Z,100156.10
2023-02-14T10:31:27.756Z,100157.48
2023-02-14T10:34:05.950Z,100155.39
2023-02-14T10:36:54.028Z,100151.27
2023-02-14T10:39:43.914Z,100155.40
2023-02-14T10:42:26.386Z,100157.70
2023-02-14T10:45:10.680Z,100160.88
2023-02-14T10:47:51.706Z,100157.55
2023-02-14T10:50:30.082Z,100156.29
2023-02-14T10:53:14.478Z,100151.55
2023-02-14T10:55:55.078Z,100143.98
2023-02-14T10:58:32.682Z,100144.52
2023-02-14T11:01:08.354Z,100144.39
2023-02-14T11:03:44.259Z,100143.61
2023-02-14T11:06:17.210Z,100140.30
2023-02-14T11:08:49.312Z,100142.79
2023-02-14T11:11:26.812Z,100133.68
2023-02-14T11:16:58.007Z,100136.25
2023-02-14T11:19:37.224Z,100137.02
2023-02-14T11:22:10.365Z,100130.91
2023-02-14T11:24:43.074Z,100131.39
2023-02-14T11:27:21.434Z,100138.73
2023-02-14T11:29:54.745Z,100136.58
2023-02-14T11:32:29.016Z,100134.12
2023-02-14T11:35:09.709Z,100130.08
2023-02-14T11:37:59.401Z,100126.02
2023-02-14T11:40:34.751Z,100120.93
2023-02-14T11:43:21.812Z,100115.77
2023-02-14T11:46:08.339Z,100121.88
2023-02-14T11:48:40.777Z,100120.31
2023-02-14T11:51:14.858Z,100118.26
2023-02-14T11:53:52.232Z,100107.94
2023-02-14T11:56:25.683Z,100105.87
2023-02-14T11:59:03.057Z,100111.39
2023-02-14T12:01:38.727Z,100101.19
2023-02-14T12:04:18.881Z,100098.30
2023-02-14T12:06:51.114Z,100095.02
2023-02-14T12:09:31.583Z,100094.77
2023-02-14T12:12:15.881Z,100089.48
2023-02-14T12:14:48.429Z,100088.93
2023-02-14T12:17:35.572Z,100088.54
2023-02-14T12:20:15.464Z,100087.32
2023-02-14T12:22:54.827Z,100084.73
2023-02-14T12:25:29.901Z,100079.64
2023-02-14T12:28:07.698Z,100074.11
2023-02-14T12:30:40.031Z,100078.92
2023-02-14T12:33:20.508Z,100080.77
2023-02-14T12:36:03.285Z,100076.96
2023-02-14T12:38:47.185Z,100070.68
2023-02-14T12:41:36.095Z,100070.48
2023-02-14T12:44:16.018Z,100076.96
2023-02-14T12:47:29.818Z,100071.52
2023-02-14T12:50:25.809Z,100060.52
2023-02-14T12:53:29.125Z,100062.07
2023-02-14T12:56:08.409Z,100059.00
2023-02-14T12:58:58.638Z,100052.27
2023-02-14T13:01:54.079Z,100056.05
2023-02-14T13:05:03.244Z,100062.05
2023-02-14T13:07:57.985Z,100056.23
2023-02-14T13:10:47.923Z,100051.55
2023-02-14T13:13:31.999Z,100047.42
2023-02-14T13:16:14.027Z,100052.05
2023-02-14T13:18:54.625Z,100054.80
2023-02-14T13:21:26.453Z,100053.96
2023-02-14T13:24:07.815Z,100046.70
2023-02-14T13:26:45.285Z,100044.81
2023-02-14T13:29:23.636Z,100043.72
2023-02-14T13:32:01.438Z,100041.37
2023-02-14T13:34:38.076Z,100043.04
2023-02-14T13:37:14.751Z,100040.30
2023-02-14T13:39:50.679Z,100034.12
2023-02-14T13:42:53.755Z,100044.53
2023-02-14T13:45:54.375Z,100045.66
2023-02-14T13:48:29.326Z,100037.44
2023-02-14T13:51:04.291Z,100034.96
2023-02-14T13:53:40.592Z,100040.23
2023-02-14T13:56:35.055Z,100035.89
2023-02-14T13:59:25.336Z,100035.04
2023-02-14T14:02:18.149Z,100028.05
2023-02-14T14:04:50.514Z,100033.63
2023-02-14T14:07:27.305Z,100033.13
2023-02-14T14:10:04.788Z,100033.79
2023-02-14T14:12:52.113Z,100038.88
2023-02-14T14:15:25.656Z,100033.41
2023-02-14T14:18:28.383Z,100028.14
2023-02-14T14:21:00.547Z,100032.36
2023-02-14T14:23:38.708Z,100031.33
2023-02-14T14:26:36.312Z,100027.73
2023-02-14T14:29:17.628Z,100030.94
2023-02-14T14:31:55.842Z,100026.94
2023-02-14T14:34:29.548Z,100035.77
2023-02-14T14:37:16.890Z,100031.51
2023-02-14T14:39:53.958Z,100031.98
2023-02-14T14:42:27.966Z,100029.42
2023-02-14T14:45:03.822Z,100026.29
2023-02-14T14:47:42.972Z,100026.08
2023-02-14T14:50:23.073Z,100028.45
2023-02-14T14:53:00.782Z,100026.13
2023-02-14T14:55:37.440Z,100027.17
2023-02-14T14:58:30.524Z,100026.95
2023-02-14T15:01:03.078Z,100020.70
2023-02-14T15:03:35.980Z,100025.95
2023-02-14T15:06:17.051Z,100020.86
2023-02-14T15:08:51.630Z,100026.48
2023-02-14T15:11:45.745Z,100027.04
2023-02-14T15:14:24.044Z,100023.10
2023-02-14T15:17:00.218Z,100028.27
2023-02-14T15:19:37.355Z,100028.41
2023-02-14T15:22:20.088Z,100034.41
2023-02-14T15:24:53.261Z,100037.44
2023-02-14T15:27:28.431Z,100035.31
2023-02-14T15:30:06.749Z,100035.00
2023-02-14T15:32:40.418Z,100036.89
2023-02-14T15:35:18.974Z,100039.77
2023-02-14T15:37:54.260Z,100043.97
2023-02-14T15:40:29.692Z,100046.34
2023-02-14T15:43:22.103Z,100049.58
2023-02-14T15:45:58.437Z,100050.60
2023-02-14T15:48:34.424Z,100047.01
2023-02-14T15:51:06.931Z,100047.13
2023-02-14T15:53:45.851Z,100049.24
2023-02-14T15:56:25.169Z,100049.39
2023-02-14T15:59:03.061Z,100049.27
2023-02-14T16:01:38.695Z,100055.84
2023-02-14T16:04:12.128Z,100051.60
2023-02-14T16:06:50.209Z,100052.77
2023-02-14T16:09:30.451Z,100056.88
2023-02-14T16:12:12.491Z,100063.45
2023-02-14T16:14:46.693Z,100062.29
2023-02-14T16:17:35.378Z,100067.00
2023-02-14T16:20:27.388Z,100069.10
2023-02-14T16:23:27.051Z,100064.34
2023-02-14T16:25:59.258Z,100065.30
2023-02-14T16:28:36.906Z,100069.05
2023-02-14T16:31:14.699Z,100068.90
2023-02-14T16:33:47.032Z,100069.36
2023-02-14T16:36:23.932Z,100070.66
2023-02-14T16:38:57.268Z,100075.08
2023-02-14T16:41:31.071Z,100078.91
2023-02-14T16:44:03.728Z,100079.91
2023-02-14T16:46:38.087Z,100083.20
2023-02-14T16:49:10.339Z,100079.08
2023-02-14T16:51:45.714Z,100073.05
2023-02-14T16:54:22.761Z,100076.81
2023-02-14T16:56:58.584Z,100079.70
2023-02-14T16:59:31.662Z,100078.70
2023-02-14T17:02:04.220Z,100082.91
2023-02-14T17:04:38.528Z,100085.38
2023-02-14T17:07:11.181Z,100090.58
2023-02-14T17:09:47.094Z,100090.98
2023-02-14T17:12:28.462Z,100085.60
2023-02-14T17:15:06.997Z,100084.59
2023-02-14T17:17:40.375Z,100087.04
2023-02-14T17:20:14.480Z,100085.30
2023-02-14T17:22:47.084Z,100087.85
2023-02-14T17:25:19.412Z,100087.23
2023-02-14T17:27:51.712Z,100088.38
2023-02-14T17:30:24.305Z,100087.24
2023-02-14T17:32:56.609Z,100083.71
2023-02-14T17:35:30.203Z,100078.08
2023-02-14T17:38:02.738Z,100079.18
2023-02-14T17:40:35.207Z,100084.36
2023-02-14T17:43:07.562Z,100082.02
2023-02-14T17:45:41.029Z,100081.48
2023-02-14T17:48:13.508Z,100082.61
2023-02-14T17:50:46.354Z,100086.92
2023-02-14T17:53:19.055Z,100086.67
2023-02-14T17:55:52.807Z,100088.34
2023-02-14T17:58:25.277Z,100087.77
2023-02-14T18:01:02.252Z,100086.92
2023-02-14T18:03:35.124Z,100085.81
2023-02-14T18:06:11.223Z,100082.64
2023-02-14T18:08:50.566Z,100084.16
2023-02-14T18:11:25.921Z,100084.52
2023-02-14T18:13:59.734Z,100084.33
2023-02-14T18:16:32.151Z,100085.42
2023-02-14T18:19:06.983Z,100085.94
2023-02-14T18:21:41.450Z,100085.09
2023-02-14T18:24:15.972Z,100085.11
2023-02-14T18:26:48.602Z,100085.90
2023-02-14T18:29:21.373Z,100089.28
2023-02-14T18:31:54.039Z,100089.95
2023-02-14T18:34:26.731Z,100086.56
2023-02-14T18:37:00.120Z,100086.83
2023-02-14T18:39:33.669Z,100081.61
2023-02-14T18:42:06.050Z,100078.73
2023-02-14T18:44:38.495Z,100081.75
2023-02-14T18:47:14.341Z,100080.65
2023-02-14T18:49:48.222Z,100077.52
2023-02-14T18:52:21.091Z,100078.73
2023-02-14T18:54:53.399Z,100079.30
2023-02-14T18:57:26.115Z,100076.32
2023-02-14T18:59:58.354Z,100071.52
2023-02-14T19:02:30.578Z,100073.54
2023-02-14T19:05:04.314Z,100075.44
2023-02-14T19:07:36.845Z,100073.51
2023-02-14T19:10:11.605Z,100063.83
2023-02-14T19:12:44.154Z,100065.63
2023-02-14T19:15:16.424Z,100057.85
2023-02-14T19:17:48.852Z,100062.70
2023-02-14T19:20:22.472Z,100065.99
2023-02-14T19:22:54.675Z,100063.56
2023-02-14T19:25:29.517Z,100069.52
2023-02-14T19:28:01.873Z,100070.46
2023-02-14T19:30:34.729Z,100067.33
2023-02-14T19:33:07.091Z,100069.85
2023-02-14T19:35:39.420Z,100068.75
2023-02-14T19:38:12.071Z,100069.44
2023-02-14T19:40:47.679Z,100068.20
2023-02-14T19:43:20.133Z,100072.44
2023-02-14T19:45:52.451Z,100074.59
2023-02-14T19:48:25.260Z,100073.31
2023-02-14T19:51:00.685Z,100073.50
2023-02-14T19:53:33.581Z,100072.48
2023-02-14T19:56:06.441Z,100072.48
2023-02-14T19:58:38.852Z,100070.14
2023-02-14T20:01:23.316Z,100070.59
2023-02-14T20:03:55.976Z,100068.62
2023-02-14T20:06:30.414Z,100067.08
2023-02-14T20:09:02.803Z,100064.27
2023-02-14T20:11:39.041Z,100060.95
2023-02-14T20:14:11.586Z,100060.67
2023-02-14T20:16:43.862Z,100063.88
2023-02-14T20:19:19.212Z,100066.70
2023-02-14T20:21:52.806Z,100068.71
2023-02-14T20:24:26.873Z,100063.00
2023-02-14T20:27:00.536Z,100062.85
2023-02-14T20:29:33.276Z,100066.98
2023-02-14T20:32:05.988Z,100062.05
2023-02-14T20:34:38.412Z,100065.84
2023-02-14T20:37:11.185Z,100065.65
2023-02-14T20:39:43.556Z,100068.88
2023-02-14T20:42:15.815Z,100066.64
2023-02-14T20:44:48.594Z,100060.92
2023-02-14T20:47:20.966Z,100056.31
2023-02-14T20:49:53.396Z,100064.03
2023-02-14T20:52:27.293Z,100071.27
2023-02-14T20:54:59.503Z,100071.91
2023-02-14T20:57:33.082Z,100068.38
2023-02-14T21:00:06.151Z,100065.48
2023-02-14T21:02:39.781Z,100062.82
2023-02-14T21:05:18.874Z,100061.63
2023-02-14T21:07:51.247Z,100060.61
2023-02-14T21:10:23.818Z,100061.61
2023-02-14T21:12:56.502Z,100059.11
2023-02-14T21:15:31.575Z,100059.81
2023-02-14T21:18:06.613Z,100060.46
2023-02-14T21:20:38.900Z,100060.37
2023-02-14T21:23:11.573Z,100059.31
2023-02-14T21:25:43.816Z,100061.11
2023-02-14T21:28:16.320Z,100058.02
2023-02-14T21:30:49.140Z,100057.71
2023-02-14T21:33:21.764Z,100056.42
2023-02-14T21:35:55.296Z,100056.65
2023-02-14T21:38:29.029Z,100054.08
2023-02-14T21:41:06.461Z,100052.23
2023-02-14T21:43:40.384Z,100045.95
2023-02-14T21:46:14.062Z,100040.80
2023-02-14T21:49:04.319Z,100036.42
2023-02-14T21:51:36.627Z,100036.96
2023-02-14T21:54:10.399Z,100032.19
2023-02-14T21:56:43.117Z,100028.84
2023-02-14T21:59:15.584Z,100024.69
2023-02-14T22:01:47.818Z,100025.98
2023-02-14T22:04:20.546Z,100025.93
2023-02-14T22:06:53.640Z,100024.70
2023-02-14T22:09:27.822Z,100023.34
2023-02-14T22:12:00.050Z,100022.14
2023-02-14T22:14:32.689Z,100019.88
2023-02-14T22:17:07.057Z,100017.89
2023-02-14T22:19:39.364Z,100017.08
2023-02-14T22:22:11.673Z,100019.20
2023-02-14T22:24:43.848Z,100020.07
2023-02-14T22:27:17.421Z,100016.33
2023-02-14T22:29:49.638Z,100017.20
2023-02-14T22:32:21.965Z,100016.96
2023-02-14T22:34:55.078Z,100019.89
2023-02-14T22:37:30.332Z,100021.23
2023-02-14T22:40:02.608Z,100021.46
2023-02-14T22:42:35.428Z,100024.56
2023-02-14T22:45:08.926Z,100022.73
2023-02-14T22:47:41.239Z,100027.70
2023-02-14T22:50:13.912Z,100028.16
2023-02-14T22:52:46.151Z,100024.95
2023-02-14T22:55:19.234Z,100026.47
2023-02-14T22:57:51.491Z,100026.98
2023-02-14T23:00:24.328Z,100020.98
2023-02-14T23:02:56.542Z,100018.42
2023-02-14T23:05:28.785Z,100021.60
2023-02-14T23:08:02.353Z,100023.41
2023-02-14T23:10:34.862Z,100022.41
2023-02-14T23:13:28.549Z,100019.39
2023-02-14T23:16:18.939Z,100017.81
2023-02-14T23:19:09.047Z,100014.70
2023-02-14T23:21:56.689Z,100015.98
2023-02-14T23:24:29.054Z,100013.59
2023-02-14T23:27:01.366Z,100010.65
2023-02-14T23:29:34.326Z,100007.03
2023-02-14T23:32:07.868Z,100005.38
2023-02-14T23:34:42.130Z,100006.25
2023-02-14T23:37:14.897Z,100006.30
2023-02-14T23:39:47.160Z,100006.88
2023-02-14T23:42:21.479Z,100004.10
2023-02-14T23:44:53.805Z,100000.17
2023-02-14T23:47:29.557Z,100000.10
2023-02-14T23:50:03.150Z,100002.36
2023-02-14T23:52:37.584Z,100005.90
2023-02-14T23:55:13.680Z,100003.64
2023-02-14T23:57:46.170Z,99994.84
